Tiempo atmosférico en la estación meteorológica de Málaga, Centro Meteorológico, Málaga (60 m.)



Fecha
DESCASC
Temp. máxima en grados centígrados (hora)
DESCASC
Temp. mínima en grados centígrados (hora)
DESCASC
Temp. media en grados centígrados
DESCASC
Racha de viento máxima en m/sg (hora)
DESCASC
Velocidad máxima media en intervalos de 10 minutos(hora)
DESCASC
Precipitaciones diarias en mm
DESCASC
Precipitaciones de 00:00 a 06:00 en mm
DESCASC
Precipitaciones de 06:00 a 12:00 en mm
DESCASC
Precipitaciones de 12:00 a 18:00 en mm
DESCASC
Precipitaciones de 18:00 a 24:00 en mm
DESCASC
23-06-2019 27.7 (18:10) 18.7 (07:40) 23.2 6.67 (14:30) 4.44 (13:40) 0 0 0 0 0
22-06-2019 26.7 (12:20) 18.4 (05:40) 22.6 8.06 (14:00) 5.56 (14:10) 0 0 0 0 0
21-06-2019 32.9 (13:50) 20.6 (23:50) 26.8 9.17 (12:10) 5.56 (13:10) 0 0 0 0 0
20-06-2019 33.8 (16:30) 20.4 (00:00) 27.1 8.33 (13:00) 4.44 (11:40) 0 0 0 0 0
19-06-2019 34.9 (18:10) 20 (00:00) 27.5 9.72 (12:00) 6.67 (10:50) 0 0 0 0 0
18-06-2019 26.8 (16:20) 15.5 (00:00) 21.1 7.78 (17:30) 5 (17:40) 0 0 0 0 0
17-06-2019 25.2 (17:00) 15.1 (00:00) 20.2 6.67 (15:00) 4.17 (19:20) 0 0 0 0 0
16-06-2019 26.7 (14:20) 16.4 (00:00) 21.6 6.94 (16:30) 4.17 (16:30) 0 0 0 0 0
15-06-2019 33 (15:30) 17.4 (00:00) 25.2 10 (09:40) 6.94 (09:30) 0 0 0 0 0
14-06-2019 29.1 (14:40) 19 (00:00) 24.1 8.33 (22:00) 5 (14:50) 0 0 0 0 0
13-06-2019 26.4 (14:00) 17.6 (00:00) 22 7.22 (17:20) 4.44 (17:50) 0 0 0 0 0
12-06-2019 25 (00:00) 18.2 (00:00) 21.6 14.17 (02:50) 7.5 (02:20) 0 0 0 0 0
11-06-2019 31 (16:40) 19.9 (00:00) 25.4 10.28 (13:50) 4.72 (07:40) 0 0 0 0 0
10-06-2019 31.3 (17:50) 19.8 (00:00) 25.5 10.28 (13:50) 5.28 (12:40) 0 0 0 0 0
09-06-2019 30.8 (19:00) 20.1 (00:00) 25.4 8.33 (19:50) 4.44 (13:20) 0 0 0 0 0
08-06-2019 25.3 (13:30) 18.2 (00:00) 21.8 8.89 (18:00) 5.28 (15:00) 0 0 0 0 0
07-06-2019 30.9 (18:30) 18.3 (00:00) 24.6 10 (13:20) 5.28 (10:10) 0 0 0 0 0
06-06-2019 28.3 (15:10) 17.3 (00:00) 22.8 8.33 (14:30) 5.56 (14:30) 0 0 0 0 0
05-06-2019 27.4 (18:20) 18.7 (00:00) 23.1 13.06 (12:50) 6.67 (11:40) 0 0 0 0 0
04-06-2019 28.5 (12:10) 14.5 (00:00) 21.5 8.06 (17:50) 5.28 (14:20) 0 0 0 0 0
03-06-2019 26.2 (14:10) 15.9 (00:00) 21.1 6.67 (16:40) 4.72 (17:30) 0 0 0 0 0
02-06-2019 27.8 (12:50) 15.3 (00:00) 21.5 7.5 (15:20) 4.44 (13:20) 0 0 0 0 0
01-06-2019 26.2 (14:40) 15.8 (00:00) 21 8.61 (12:10) 5.28 (12:00) 0 0 0 0 0
31-05-2019 25 (14:50) 14.5 (00:00) 19.8 10 (17:00) 5.83 (16:20) 0 0 0 0 0
30-05-2019 23.6 (14:40) 17.3 (00:00) 20.4 9.72 (15:40) 5.83 (13:00) 0 0 0 0 0
29-05-2019 26 (13:40) 18.9 (00:00) 22.4 8.06 (11:50) 5.28 (19:00) 0 0 0 0 0
28-05-2019 26.3 (11:00) 17.9 (00:00) 22.1 8.33 (14:10) 5.83 (15:20) 0 0 0 0 0

Gráficas

Temp. máximas Temp. mínimas Temp. medias Precipitaciones Rachas de viento máximas Velocidades máximas media en intervalos de 10 minutos

Datos horarios

Fecha y hora oficial Temperatura (ºC) Velocidad del viento (km/h) Dirección del viento Racha (km/h) Dirección de racha Precipitación (mm) Presión (hPa) Tendencia (hPa) Humedad (%)
2019-06-26 23:00:00 23.6 6 Sudeste 15 Sudeste 0 1011.5 2.1 70
2019-06-26 22:00:00 23.7 10 Sudeste 17 Sudeste 0 1010.4 1.4 68
2019-06-26 21:00:00 24.5 8 Sudeste 21 Sudeste 0 1009.7 0.4 65
2019-06-26 20:00:00 25.4 12 Sudeste 23 Sudeste 0 1009.4 -0.1 61
2019-06-26 19:00:00 26 14 Sudeste 23 Sudeste 0 1009 -1.2 59
2019-06-26 18:00:00 26.5 15 Sudeste 22 Sudeste 0 1009.3 -1.2 58
2019-06-26 17:00:00 28 13 Sudeste 23 Sudeste 0 1009.5 -1.9 55
2019-06-26 16:00:00 27.4 15 Sudeste 25 Sudeste 0 1010.2 -1.9 56
2019-06-26 15:00:00 28.3 14 Sudeste 23 Sudeste 0 1010.5 -1.6 53
2019-06-26 14:00:00 28.1 12 Sur 22 Sudeste 0 1011.4 -0.6 55
2019-06-26 13:00:00 26.6 13 Sudeste 22 Sudeste 0 1012.1 0.2 56
2019-06-26 12:00:00 26.8 12 Sudeste 20 Sudeste 0 1012.1 0.8 59
2019-06-26 11:00:00 25.5 10 Sudeste 21 Sudeste 0 1012 0.9 67
2019-06-26 10:00:00 24.3 11 Sudeste 17 Sudeste 0 1011.9 1.4 70
2019-06-26 09:00:00 23.2 5 Sudeste 9 Sur 0 1011.3 1.3 76
2019-06-26 08:00:00 20.5 0 Calma 3 Oeste 0 1011.1 1.3 92
2019-06-26 07:00:00 20.2 0 Calma 6 Oeste 0 1010.5 0.2 92
2019-06-26 06:00:00 20.6 6 Oeste 9 Oeste 0 1010 -0.9 92
2019-06-26 05:00:00 20.5 3 Noroeste 9 Oeste 0 1009.8 -1 91
2019-06-26 04:00:00 21 3 Sudoeste 9 Sudeste 0 1010.3 -0.4 90
2019-06-26 03:00:00 21.5 5 Sudeste 11 Este 0 1010.9 0.5 89
2019-06-26 02:00:00 21.9 6 Este 10 Este 0 1010.8 0.9 85
2019-06-26 01:00:00 21.8 6 Sudeste 10 Sudeste 0 1010.7 1.4 85
2019-06-26 00:00:00 21.7 6 Sudeste 12 Sudeste 0 1010.4 1.7 86
2019-06-25 23:00:00 21.8 8 Sudeste 13 Sudeste 0 1009.9 1.6 88
2019-06-25 22:00:00 22.2 8 Sudeste 18 Sudeste 0 1009.3 1.1 83
2019-06-25 21:00:00 23.1 13 Sudeste 19 Sudeste 0 1008.7 0.3 76
2019-06-25 20:00:00 24.5 13 Sudeste 20 Sudeste 0 1008.3 -0.2 68
2019-06-25 19:00:00 25.4 12 Sudeste 24 Sudeste 0 1008.2 -0.5 65
2019-06-25 18:00:00 25 17 Sudeste 26 Sudeste 0 1008.4 -0.5 64
2019-06-25 17:00:00 25.7 17 Sudeste 25 Sudeste 0 1008.5 -0.7 62
2019-06-25 16:00:00 25.9 17 Sudeste 27 Este 0 1008.7 -0.7 61
2019-06-25 15:00:00 26.3 14 Sudeste 24 Sudeste 0 1008.9 -0.2 61
2019-06-25 14:00:00 26.5 15 Sudeste 22 Sudeste 0 1009.2 -0.2 56
2019-06-25 13:00:00 26.3 13 Sudeste 22 Sudeste 0 1009.4 -0.3 56
2019-06-25 12:00:00 28.2 9 Sur 16 Sudeste 0 1009.1 -0.7 53
2019-06-25 11:00:00 26.5 3 Sur 12 Sudoeste 0 1009.4 -0.4 55
2019-06-25 10:00:00 24.2 8 Oeste 13 Oeste 0 1009.7 0.4 71
2019-06-25 09:00:00 21.2 6 Oeste 11 Oeste 0 1009.8 1.1 94
2019-06-25 08:00:00 19.9 6 Oeste 8 Oeste 0 1009.8 1.4 94
2019-06-25 07:00:00 19.9 4 Este 10 Este 0 1009.3 0.7 95
2019-06-25 06:00:00 20.1 4 Sudeste 8 Sudeste 0 1008.7 0.3 94
2019-06-25 05:00:00 20 3 Sudeste 9 Sudeste 0 1008.4 -0.4 94
2019-06-25 04:00:00 20.4 6 Sudeste 11 Sudeste 0 1008.6 -0.1 92
2019-06-25 03:00:00 20.6 4 Sudeste 12 Este 0 1008.4 -0.3 91
2019-06-25 02:00:00 21.8 5 Sudeste 12 Sur 0 1008.8 0.7 79
2019-06-25 01:00:00 21 3 Noroeste 6 Norte 0 1008.7 1.1 86
2019-06-25 00:00:00 21.5 4 Oeste 8 Oeste 0 1008.7 1.2 82
2019-06-24 23:00:00 22.1 5 Sudeste 15 Este 0 1008.1 0.8 76
2019-06-24 22:00:00 22.3 10 Este 18 Este 0 1007.6 0.3 73
2019-06-24 21:00:00 22.8 10 Sudeste 18 Sudeste 0 1007.5 0 68
2019-06-24 20:00:00 24.1 11 Sudeste 21 Sudeste 0 1007.3 -0.4 62
2019-06-24 19:00:00 24.9 14 Sudeste 24 Este 0 1007.3 -0.6 61
2019-06-24 18:00:00 25.4 14 Sudeste 24 Sudeste 0 1007.5 -0.2 58
2019-06-24 17:00:00 25.4 15 Sudeste 26 Sudeste 0 1007.7 -0.4 61
2019-06-24 16:00:00 25.8 14 Sudeste 24 Sudeste 0 1007.9 -0.4 58
2019-06-24 15:00:00 27.6 14 Sudeste 26 Sudeste 0 1007.7 -0.9 50
2019-06-24 14:00:00 26.8 14 Sudeste 25 Este 0 1008.1 -0.2 53
2019-06-24 13:00:00 26.7 13 Sudeste 23 Sudeste 0 1008.3 0 53
2019-06-24 12:00:00 26.3 10 Sudeste 18 Sudeste 0 1008.6 0.4 58
2019-06-24 11:00:00 25.4 11 Sudeste 18 Sudeste 0 1008.3 0.1 56
2019-06-24 10:00:00 24.3 6 Sudoeste 11 Sur 0 1008.3 0.5 61
2019-06-24 09:00:00 22.6 3 Sudeste 7 Este 0 1008.2 0.3 70
2019-06-24 08:00:00 19.3 0 Calma 9 Sudoeste 0 1008.2 0.2 79
2019-06-24 07:00:00 19.5 5 Noroeste 10 Norte 0 1007.8 -0.4 77
2019-06-24 06:00:00 19 3 Oeste 7 Oeste 0 1007.9 -0.6 86
2019-06-24 05:00:00 20 5 Oeste 7 Oeste 0 1008 -0.8 85
2019-06-24 04:00:00 20.3 4 Nordeste 6 Este 0 1008.2 -0.6 83
2019-06-24 03:00:00 20.7 5 Sudeste 9 Sudeste 0 1008.5 0.3 83
2019-06-24 02:00:00 21 6 Sudeste 10 Sudeste 0 1008.8 1.1 80
2019-06-24 01:00:00 21.4 5 Sudeste 8 Sudeste 0 1008.8 1.9 77
2019-06-24 00:00:00 21.7 5 Sur 10 Sudeste 0 1008.2 1.3 74
2019-06-23 23:00:00 21.8 5 Sudeste 10 Sudeste 0 1007.7 1.2 75
2019-06-23 22:00:00 22.3 6 Sudeste 14 Sudeste 0 1006.9 0.8 71
2019-06-23 21:00:00 23.2 11 Sudeste 19 Sudeste 0 1006.9 0.4 65
2019-06-23 20:00:00 24.5 11 Sudeste 18 Sudeste 0 1006.5 -0.3 59
2019-06-23 19:00:00 26.3 13 Sudeste 21 Sudeste 0 1006.1 -1.1 55
2019-06-23 18:00:00 26.9 14 Sudeste 21 Sur 0 1006.5 -1.6 53
2019-06-23 17:00:00 26.9 11 Sudeste 19 Sudeste 0 1006.8 -1.6 56
2019-06-23 16:00:00 26.6 10 Sudeste 23 Sudeste 0 1007.2 -1.5 58
2019-06-23 15:00:00 26.5 12 Sudeste 24 Sudeste 0 1008.1 -0.5 58
2019-06-23 14:00:00 25.5 13 Sur 23 Sudeste 0 1008.4 -0.3 62
2019-06-23 13:00:00 23.9 12 Sur 21 Sur 0 1008.7 0.4 70
2019-06-23 12:00:00 23.6 12 Sur 18 Sur 0 1008.6 0.4 73
2019-06-23 11:00:00 23.1 13 Sudeste 19 Sudeste 0 1008.7 0.3 73
2019-06-23 10:00:00 23.2 6 Sudeste 13 Sudeste 0 1008.3 -0.1 74
2019-06-23 09:00:00 21.3 3 Sudoeste 12 Oeste 0 1008.2 -0.1 86
2019-06-23 08:00:00 19.5 6 Oeste 11 Oeste 0 1008.4 -0.1 91
2019-06-23 07:00:00 19.5 4 Oeste 7 Noroeste 0 1008.4 -0.2 89
2019-06-23 06:00:00 19.7 0 Calma 7 Sudeste 0 1008.3 -0.3 91
2019-06-23 05:00:00 19.9 5 Sudeste 8 Sudeste 0 1008.5 -0.4 91
2019-06-23 04:00:00 20.3 5 Sur 8 Sur 0 1008.6 -0.3 91
2019-06-23 03:00:00 20.5 0 Calma 5 Noroeste 0 1008.6 -0.6 91
2019-06-23 02:00:00 20.8 4 Noroeste 7 Oeste 0 1008.9 0 91
2019-06-23 01:00:00 20.9 4 Oeste 6 Oeste 0 1008.9 0.2 91
2019-06-23 00:00:00 21.1 5 Sudoeste 6 Oeste 0 1009.2 0.7 89
2019-06-22 23:00:00 21.1 5 Sudeste 16 Sudeste 0 1008.9 0.8 91
2019-06-22 22:00:00 21.5 12 Sudeste 19 Sudeste 0 1008.7 0.8 89
2019-06-22 21:00:00 22.3 11 Sudeste 25 Sudeste 0 1008.5 0.6 82
2019-06-22 20:00:00 23.8 13 Sudeste 24 Sudeste 0 1008.1 -0.3 71
2019-06-22 19:00:00 25 14 Sudeste 23 Sudeste 0 1007.9 -1.1 65
2019-06-22 18:00:00 26.1 13 Sudeste 23 Sudeste 0 1007.9 -1.9 62
2019-06-22 17:00:00 25.6 14 Sudeste 26 Sudeste 0 1008.4 -1.8 64
2019-06-22 16:00:00 26.3 12 Sudeste 25 Sudeste 0 1009 -1.4 64
2019-06-22 15:00:00 25.1 17 Sudeste 29 Sudeste 0 1009.8 -0.3 67
2019-06-22 14:00:00 25.5 18 Sudeste 29 Sudeste 0 1010.2 0.3 62
2019-06-22 13:00:00 25.9 16 Sudeste 25 Sudeste 0 1010.4 -0.1 59
2019-06-22 12:00:00 25.4 12 Sudeste 22 Este 0 1010.1 -0.5 61
2019-06-22 11:00:00 25.8 11 Sudeste 21 Sudeste 0 1009.9 -0.8 56
2019-06-22 10:00:00 23.5 8 Oeste 15 Oeste 0 1010.5 0.1 70
2019-06-22 09:00:00 21 5 Noroeste 10 Noroeste 0 1010.6 1 77
2019-06-22 08:00:00 19.4 4 Noroeste 8 Sudeste 0 1010.7 1.5 92
2019-06-22 07:00:00 19.1 2 Sur 6 Sudoeste 0 1010.4 1.3 89
2019-06-22 06:00:00 18.7 3 Sur 8 Sudoeste 0 1009.6 0.3 88
2019-06-22 05:00:00 18.8 3 Noroeste 7 Noroeste 0 1009.2 -0.2 88
2019-06-22 04:00:00 18.9 4 Oeste 7 Oeste 0 1009.1 -0.1 86
2019-06-22 03:00:00 19.2 2 Sudeste 9 Sudeste 0 1009.3 0.8 86
2019-06-22 02:00:00 19.3 7 Sudeste 15 Sudeste 0 1009.4 1.9 86
2019-06-22 01:00:00 19.9 12 Sudeste 20 Sudeste 0 1009.2 2.5 82
2019-06-22 00:00:00 20.6 10 Este 19 Este 0 1008.5 2.4 76
2019-06-21 23:00:00 21.7 7 Sudeste 10 Sudeste 0 1007.5 1.8 65
2019-06-21 22:00:00 22.9 6 Sudeste 13 Este 0 1006.7 1.2 56
2019-06-21 21:00:00 25.3 10 Sudeste 22 Este 0 1006.1 0.5 49
2019-06-21 20:00:00 26.6 12 Este 22 Nordeste 0 1005.7 -0.1 46
2019-06-21 19:00:00 27.9 13 Este 24 Este 0 1005.5 -0.5 43
2019-06-21 18:00:00 27.5 15 Este 27 Este 0 1005.6 -0.4 44
2019-06-21 17:00:00 28.3 15 Este 25 Este 0 1005.8 -0.7 43
2019-06-21 16:00:00 30.4 14 Este 24 Este 0 1006 -0.7 40
2019-06-21 15:00:00 30.7 12 Nordeste 23 Nordeste 0 1006 -1.2 40
2019-06-21 14:00:00 31.3 8 Nordeste 32 Oeste 0 1006.5 -1 38
2019-06-21 13:00:00 30.9 14 Oeste 33 Oeste 0 1006.7 -1.1 37
2019-06-21 12:00:00 30 8 Noroeste 27 Oeste 0 1007.2 -0.5 40
2019-06-21 11:00:00 28.3 13 Oeste 29 Oeste 0 1007.5 0.1 44
2019-06-21 10:00:00 25.8 16 Oeste 26 Oeste 0 1007.8 0.6 49
2019-06-21 09:00:00 23.7 15 Oeste 28 Oeste 0 1007.7 0.8 53
2019-06-21 08:00:00 21.8 17 Oeste 24 Oeste 0 1007.4 0.5 56
2019-06-21 07:00:00 21.6 13 Oeste 29 Noroeste 0 1007.2 0.3 55
2019-06-21 06:00:00 22.1 15 Oeste 28 Oeste 0 1006.9 -0.1 53
2019-06-21 05:00:00 22.5 15 Noroeste 25 Noroeste 0 1006.9 0 52
2019-06-21 04:00:00 22.9 6 Noroeste 15 Oeste 0 1006.9 0.2 50
2019-06-21 03:00:00 23.5 10 Noroeste 20 Oeste 0 1007 0.5 50
2019-06-21 02:00:00 23.7 10 Oeste 19 Oeste 0 1006.9 1 50
2019-06-21 01:00:00 24.4 12 Noroeste 23 Oeste 0 1006.7 1.5 47
2019-06-21 00:00:00 25.5 9 Oeste 19 Noroeste 0 1006.5 1.8 43
2019-06-20 23:00:00 26.5 9 Norte 28 Norte 0 1005.9 1.4 40
2019-06-20 22:00:00 27.6 10 Norte 24 Norte 0 1005.2 0.9 38
2019-06-20 21:00:00 30.3 8 Noroeste 24 Norte 0 1004.7 0.2 34
2019-06-20 20:00:00 31.8 9 Noroeste 28 Norte 0 1004.5 -0.4 33
2019-06-20 19:00:00 33.1 7 Noroeste 22 Noroeste 0 1004.3 -0.9 32
2019-06-20 18:00:00 33.5 6 Noroeste 24 Oeste 0 1004.5 -1.3 32
2019-06-20 17:00:00 33.4 11 Oeste 24 Oeste 0 1004.9 -1.5 32
2019-06-20 16:00:00 32.4 6 Norte 25 Oeste 0 1005.2 -1.7 32
2019-06-20 15:00:00 32.5 5 Norte 24 Noroeste 0 1005.8 -1.1 33
2019-06-20 14:00:00 31.5 9 Noroeste 23 Oeste 0 1006.4 -0.8 38
2019-06-20 13:00:00 30.3 8 Noroeste 30 Oeste 0 1006.9 -0.5 41
2019-06-20 12:00:00 29 13 Oeste 28 Noroeste 0 1006.9 -0.5 46
2019-06-20 11:00:00 26.6 11 Noroeste 23 Noroeste 0 1007.2 -0.2 50
2019-06-20 10:00:00 25.4 14 Oeste 26 Noroeste 0 1007.4 0.3 53
2019-06-20 09:00:00 24.1 11 Oeste 21 Oeste 0 1007.4 0.7 58
2019-06-20 08:00:00 21.5 11 Oeste 17 Oeste 0 1007.4 0.7 64
2019-06-20 07:00:00 20.4 8 Oeste 18 Oeste 0 1007.1 0 64
2019-06-20 06:00:00 21.6 9 Oeste 20 Oeste 0 1006.7 -0.3 61
2019-06-20 05:00:00 21.8 12 Oeste 22 Oeste 0 1006.7 -0.4 61
2019-06-20 04:00:00 22.2 13 Oeste 24 Oeste 0 1007.1 0.1 59
2019-06-20 03:00:00 23.4 14 Oeste 22 Noroeste 0 1007 0.1 53
2019-06-20 02:00:00 24.4 8 Oeste 19 Oeste 0 1007.1 0.7 50
2019-06-20 01:00:00 25.6 12 Noroeste 20 Oeste 0 1007 1.4 46
2019-06-20 00:00:00 26.9 7 Norte 25 Norte 0 1006.9 1.5 43
2019-06-19 23:00:00 28.2 9 Noroeste 24 Noroeste 0 1006.4 1.1 35
2019-06-19 22:00:00 29.6 9 Noroeste 22 Noroeste 0 1005.6 0.3 32
2019-06-19 21:00:00 32 8 Norte 21 Noroeste 0 1005.4 -0.4 30
2019-06-19 20:00:00 33.5 8 Noroeste 25 Noroeste 0 1005.3 -1 29
2019-06-19 19:00:00 33.8 12 Oeste 22 Noroeste 0 1005.3 -1.7 27
2019-06-19 18:00:00 34.2 12 Oeste 30 Sudoeste 0 1005.8 -1.7 28
2019-06-19 17:00:00 34.1 13 Oeste 26 Oeste 0 1006.3 -2 28
2019-06-19 16:00:00 33.7 13 Oeste 28 Sudoeste 0 1007 -1.7 28
2019-06-19 15:00:00 32.5 17 Oeste 30 Oeste 0 1007.5 -1.1 29
2019-06-19 14:00:00 31.3 13 Oeste 32 Oeste 0 1008.3 -0.6 34
2019-06-19 13:00:00 29.7 17 Oeste 33 Oeste 0 1008.7 -0.5 38
2019-06-19 12:00:00 28 21 Oeste 35 Oeste 0 1008.6 -0.5 43
2019-06-19 11:00:00 26.2 15 Oeste 33 Oeste 0 1008.9 -0.1 50
2019-06-19 10:00:00 24.2 17 Oeste 32 Oeste 0 1009.2 0.5 58
2019-06-19 09:00:00 22.2 21 Oeste 31 Oeste 0 1009.1 0.6 65
2019-06-19 08:00:00 20.3 17 Oeste 30 Oeste 0 1009 0.5 71
2019-06-19 07:00:00 20.1 14 Oeste 25 Oeste 0 1008.7 0.2 70
2019-06-19 06:00:00 20.5 15 Oeste 22 Oeste 0 1008.5 -0.3 68
2019-06-19 05:00:00 20.9 12 Oeste 21 Oeste 0 1008.5 -0.5 67
2019-06-19 04:00:00 21.3 13 Oeste 23 Oeste 0 1008.5 -0.3 67
2019-06-19 03:00:00 21.1 7 Oeste 21 Oeste 0 1008.8 -0.1 65
2019-06-19 02:00:00 22 10 Oeste 19 Oeste 0 1009 0.2 62
2019-06-19 01:00:00 22.7 10 Oeste 19 Oeste 0 1008.8 0.5 58
2019-06-19 00:00:00 23.1 11 Oeste 19 Oeste 0 1008.9 0.7 56
2019-06-18 23:00:00 21.8 5 Noroeste 12 Oeste 0 1008.8 0.7 62
2019-06-18 22:00:00 22.5 4 Sudeste 15 Este 0 1008.3 0.4 58
2019-06-18 21:00:00 23.4 7 Este 17 Sudeste 0 1008.2 -0.4 55
2019-06-18 20:00:00 24.4 14 Sudeste 23 Sudeste 0 1008.1 -0.9 49
2019-06-18 19:00:00 26.2 14 Este 25 Este 0 1007.9 -1.4 40
2019-06-18 18:00:00 25.3 15 Este 28 Sudeste 0 1008.6 -0.8 46
2019-06-18 17:00:00 25.6 15 Este 24 Este 0 1009 -1 46
2019-06-18 16:00:00 26.3 14 Este 25 Sudeste 0 1009.3 -0.7 41
2019-06-18 15:00:00 26 15 Sudeste 24 Sudeste 0 1009.4 -0.6 43
2019-06-18 14:00:00 25.4 13 Sudeste 20 Este 0 1010 0.1 49
2019-06-18 13:00:00 25.4 12 Sudeste 20 Sudeste 0 1010 -0.2 47
2019-06-18 12:00:00 25.4 13 Sudeste 17 Sudeste 0 1010 0.1 44
2019-06-18 11:00:00 25 6 Este 12 Sudeste 0 1009.9 0 46
2019-06-18 10:00:00 22.8 4 Sudoeste 8 Sudoeste 0 1010.2 0.3 50
2019-06-18 09:00:00 20.3 5 Sudoeste 7 Oeste 0 1009.9 0.4 59
2019-06-18 08:00:00 17.4 3 Noroeste 9 Noroeste 0 1009.9 0.3 65
2019-06-18 07:00:00 15.6 3 Noroeste 8 Oeste 0 1009.9 0.1 74
2019-06-18 06:00:00 16.8 2 Oeste 8 Noroeste 0 1009.5 -0.5 71
2019-06-18 05:00:00 17.4 6 Noroeste 9 Noroeste 0 1009.6 -0.8 73
2019-06-18 04:00:00 17.8 4 Noroeste 7 Noroeste 0 1009.8 -0.9 82
2019-06-18 03:00:00 18.2 0 Calma 4 Oeste 0 1010 -0.5 83
2019-06-18 02:00:00 18.5 0 Calma -- -- 0 1010.4 0.4 85
2019-06-18 01:00:00 18.9 0 Calma 4 Oeste 0 1010.7 1 83
2019-06-18 00:00:00 19.5 2 Sur 6 Sur 0 1010.5 0.6 80
2019-06-17 23:00:00 20 4 Sudeste 13 Sudeste 0 1010 0.3 76
2019-06-17 22:00:00 20.5 8 Sudeste 16 Sudeste 0 1009.7 0.3 77
2019-06-17 21:00:00 21.2 10 Sudeste 18 Sudeste 0 1009.9 0.2 76
2019-06-17 20:00:00 21.9 14 Sudeste 21 Sudeste 0 1009.7 -0.1 71
2019-06-17 19:00:00 23.5 14 Sudeste 21 Sudeste 0 1009.4 -1.3 61
2019-06-17 18:00:00 24.1 14 Sudeste 19 Este 0 1009.7 -1.7 58
2019-06-17 17:00:00 24.5 12 Sudeste 22 Sudeste 0 1009.8 -2.1 56
2019-06-17 16:00:00 24.4 14 Sudeste 23 Sudeste 0 1010.7 -1.2 61
2019-06-17 15:00:00 23.9 14 Sudeste 24 Sudeste 0 1011.4 -0.8 59
2019-06-17 14:00:00 23.9 13 Sudeste 20 Sudeste 0 1011.9 -0.5 59
2019-06-17 13:00:00 24.5 12 Sudeste 19 Sudeste 0 1011.9 -0.5 61
2019-06-17 12:00:00 24.2 9 Sudeste 19 Sudeste 0 1012.2 -0.3 56
2019-06-17 11:00:00 23.2 11 Sur 17 Sudeste 0 1012.4 -0.3 56
2019-06-17 10:00:00 22.2 5 Sur 10 Sudoeste 0 1012.4 0 59
2019-06-17 09:00:00 19.2 3 Sudoeste 6 Oeste 0 1012.5 0.3 56
2019-06-17 08:00:00 15.9 4 Oeste 8 Oeste 0 1012.7 0.5 62
2019-06-17 07:00:00 15.6 4 Oeste 6 Oeste 0 1012.4 -0.1 59
2019-06-17 06:00:00 17.3 2 Noroeste 8 Noroeste 0 1012.2 -0.7 55
2019-06-17 05:00:00 17.5 2 Noroeste 9 Noroeste 0 1012.2 -1.2 56
2019-06-17 04:00:00 18.1 5 Noroeste 9 Noroeste 0 1012.5 -1.2 56
2019-06-17 03:00:00 18.6 3 Noroeste 6 Noroeste 0 1012.9 -0.8 58
2019-06-17 02:00:00 18.6 3 Noroeste 7 Noroeste 0 1013.4 -0.1 59
2019-06-17 01:00:00 19.9 4 Norte 6 Norte 0 1013.7 0.8 58
2019-06-17 00:00:00 20.1 0 Calma 3 Norte 0 1013.7 1.3 61
2019-06-16 23:00:00 20.4 0 Calma 7 Sudoeste 0 1013.5 1 58
2019-06-16 22:00:00 21.3 4 Sur 8 Sur 0 1012.9 0.3 55
2019-06-16 21:00:00 22.9 4 Sudeste 17 Sudeste 0 1012.4 0 52
2019-06-16 20:00:00 23.5 10 Sudeste 20 Sudeste 0 1012.5 0.1 50
2019-06-16 19:00:00 24.9 10 Sudeste 19 Sur 0 1012.6 0.1 46
2019-06-16 18:00:00 25.3 12 Sudeste 22 Sur 0 1012.4 -0.6 46
2019-06-16 17:00:00 25.6 13 Sudeste 25 Sur 0 1012.4 -0.5 46
2019-06-16 16:00:00 25 12 Sudeste 22 Sur 0 1012.5 -0.4 44
2019-06-16 15:00:00 23.8 12 Sudeste 24 Sudeste 0 1013 0.2 43
2019-06-16 14:00:00 25.8 11 Sur 20 Sur 0 1012.9 0.5 38
2019-06-16 13:00:00 24.1 8 Sudeste 17 Sudeste 0 1012.9 0.3 40
2019-06-16 12:00:00 23 9 Sudeste 17 Sudeste 0 1012.8 0.9 46
2019-06-16 11:00:00 23.3 4 Sudoeste 14 Oeste 0 1012.4 0.3 50
2019-06-16 10:00:00 21.2 10 Oeste 14 Oeste 0 1012.6 0.9 67
2019-06-16 09:00:00 18.3 4 Norte 12 Noroeste 0 1011.9 0.6 83
2019-06-16 08:00:00 17.2 6 Noroeste 11 Noroeste 0 1012.1 1.1 88
2019-06-16 07:00:00 16.4 5 Noroeste 9 Sudeste 0 1011.7 0.8 93
2019-06-16 06:00:00 17.5 8 Sudeste 13 Sudeste 0 1011.3 0.7 91
2019-06-16 05:00:00 17.3 6 Sudeste 12 Sudeste 0 1011 -0.4 89
2019-06-16 04:00:00 17.2 4 Sudeste 6 Oeste 0 1010.9 -0.7 88
2019-06-16 03:00:00 17.6 5 Oeste 7 Este 0 1010.6 -1 85
2019-06-16 02:00:00 18.2 5 Sudeste 10 Este 0 1011.4 0.3 83
2019-06-16 01:00:00 18.7 5 Este 11 Sudeste 0 1011.6 1.2 79
2019-06-16 00:00:00 19.3 6 Sudeste 9 Sudeste 0 1011.6 1.6 74
2019-06-15 23:00:00 19.8 6 Sudeste 9 Sudeste 0 1011.1 1.4 67
2019-06-15 22:00:00 20.6 6 Sur 15 Este 0 1010.4 0.8 61
2019-06-15 21:00:00 22.7 9 Este 23 Este 0 1010 0.1 47
2019-06-15 20:00:00 23.5 14 Este 25 Sudeste 0 1009.7 -0.1 46
2019-06-15 19:00:00 23.8 16 Este 32 Sudeste 0 1009.6 0.1 44
2019-06-15 18:00:00 24.1 18 Este 30 Este 0 1009.9 0.4 44
2019-06-15 17:00:00 25 19 Este 33 Este 0 1009.8 -0.5 41
2019-06-15 16:00:00 31 6 Nordeste 32 Oeste 0 1009.5 -1.3 28
2019-06-15 15:00:00 32.1 18 Oeste 29 Oeste 0 1009.5 -1.9 25
2019-06-15 14:00:00 30.9 14 Oeste 30 Oeste 0 1010.3 -1.4 27
2019-06-15 13:00:00 29.3 17 Oeste 35 Sudoeste 0 1010.8 -1.3 30
2019-06-15 12:00:00 26.7 23 Oeste 35 Oeste 0 1011.4 -0.9 35
2019-06-15 11:00:00 24.3 21 Oeste 34 Oeste 0 1011.7 -0.4 41
2019-06-15 10:00:00 21.6 21 Oeste 36 Oeste 0 1012.1 0.3 46
2019-06-15 09:00:00 19.7 21 Oeste 32 Oeste 0 1012.3 0.8 50
2019-06-15 08:00:00 17.9 19 Oeste 29 Oeste 0 1012.1 0.8 52
2019-06-15 07:00:00 17.5 17 Oeste 27 Oeste 0 1011.8 0.3 50
2019-06-15 06:00:00 17.8 14 Oeste 26 Oeste 0 1011.5 -0.1 49
2019-06-15 05:00:00 18.2 12 Oeste 22 Oeste 0 1011.3 -0.3 47
2019-06-15 04:00:00 18.8 12 Oeste 18 Noroeste 0 1011.5 -0.2 46
2019-06-15 03:00:00 19.4 10 Oeste 21 Noroeste 0 1011.6 0.4 44
2019-06-15 02:00:00 19.8 11 Oeste 20 Oeste 0 1011.6 1.2 43
2019-06-15 01:00:00 20.6 11 Noroeste 22 Noroeste 0 1011.7 2 41
2019-06-15 00:00:00 21.4 11 Noroeste 24 Noroeste 0 1011.2 2.1 38
2019-06-14 23:00:00 22.6 9 Noroeste 26 Nordeste 0 1010.4 1.6 35
2019-06-14 22:00:00 23.9 10 Norte 30 Norte 0 1009.7 1.5 33
2019-06-14 21:00:00 25.8 8 Norte 18 Nordeste 0 1009.1 0.7 30
2019-06-14 20:00:00 25.1 13 Nordeste 22 Nordeste 0 1008.8 0.7 35
2019-06-14 19:00:00 27.8 9 Este 19 Sur 0 1008.2 0.1 32
2019-06-14 18:00:00 28.1 6 Sudeste 24 Sudeste 0 1008.4 0.2 32
2019-06-14 17:00:00 27.5 11 Sudeste 22 Sudeste 0 1008.1 -0.2 34
2019-06-14 16:00:00 27.5 13 Este 26 Sudeste 0 1008.1 -0.8 35
2019-06-14 15:00:00 28.2 10 Nordeste 29 Nordeste 0 1008.2 -0.9 35
2019-06-14 14:00:00 28.3 10 Oeste 27 Oeste 0 1008.3 -0.7 33
2019-06-14 13:00:00 26.4 9 Sudoeste 22 Sudoeste 0 1008.9 0.3 37
2019-06-14 12:00:00 24.8 5 Noroeste 19 Oeste 0 1009.1 0.8 43
2019-06-14 11:00:00 23.9 8 Oeste 23 Oeste 0 1009 1.2 44
2019-06-14 10:00:00 21.6 9 Noroeste 16 Noroeste 0 1008.6 1.1 50
2019-06-14 09:00:00 20.3 2 Oeste 8 Sudoeste 0 1008.3 1.1 89
2019-06-14 08:00:00 19.7 0 Calma 4 Sur 0 1007.8 1.1 91
2019-06-14 07:00:00 19.4 2 Nordeste 6 Nordeste 0 1007.5 0.7 91
2019-06-14 06:00:00 19 3 Oeste 7 Sudoeste 0 1007.2 0.2 91
2019-06-14 05:00:00 19.3 3 Nordeste 12 Sudeste 0 1006.7 -1.2 91
2019-06-14 04:00:00 19.5 6 Este 15 Este 0 1006.8 -1.2 89
2019-06-14 03:00:00 19.8 6 Este 13 Sudeste 0 1007 -0.4 88
2019-06-14 02:00:00 20.5 8 Este 14 Este 0 1007.9 1.3 83
2019-06-14 01:00:00 20.4 9 Este 15 Este 0 1008 2.5 82
2019-06-14 00:00:00 20.1 9 Sudeste 17 Sudeste 0 1007.4 2.8 83
2019-06-13 23:00:00 20.4 13 Sudeste 21 Sudeste 0 1006.6 2.8 82
2019-06-13 22:00:00 20.6 12 Sudeste 23 Sudeste 0 1005.5 1.5 77
2019-06-13 21:00:00 21.5 9 Sudeste 19 Sur 0 1004.6 0.7 71
2019-06-13 20:00:00 22.6 12 Sudeste 18 Sudeste 0 1003.8 -0.5 64
2019-06-13 19:00:00 23.3 13 Sudeste 24 Sudeste 0 1004 -0.5 59
2019-06-13 18:00:00 24.7 15 Sudeste 26 Sudeste 0 1003.9 -0.8 56
2019-06-13 17:00:00 25.7 11 Sur 23 Sur 0 1004.3 -0.6 56
2019-06-13 16:00:00 25.5 14 Sur 25 Sur 0 1004.5 -0.5 55
2019-06-13 15:00:00 26 14 Sur 26 Sur 0 1004.7 -0.5 53
2019-06-13 14:00:00 26.2 12 Sur 21 Sur 0 1004.9 -0.5 53
2019-06-13 13:00:00 25.2 11 Sur 21 Sur 0 1005 -0.5 55
2019-06-13 12:00:00 25 10 Sur 19 Sur 0 1005.2 -0.3 56
2019-06-13 11:00:00 22.8 6 Sudoeste 13 Sudoeste 0 1005.4 0 67
2019-06-13 10:00:00 21.4 3 Sur 8 Sur 0 1005.5 0.3 74
2019-06-13 09:00:00 20 0 Calma 5 Sur 0 1005.5 0.4 82
2019-06-13 08:00:00 18.1 0 Calma 5 Oeste 0 1005.4 0.4 88
2019-06-13 07:00:00 17.7 4 Noroeste 8 Noroeste 0 1005.2 -0.3 89
2019-06-13 06:00:00 17.8 5 Oeste 10 Noroeste 0 1005.1 -1.1 89
2019-06-13 05:00:00 18.2 7 Noroeste 14 Noroeste 0 1005 -1.8 89
2019-06-13 04:00:00 18.9 7 Noroeste 13 Noroeste 0 1005.5 -1.4 88
2019-06-13 03:00:00 19.1 3 Noroeste 9 Oeste 0 1006.2 -1.1 88
2019-06-13 02:00:00 18.7 5 Sudoeste 8 Oeste 0 1006.8 -0.3 89
2019-06-13 01:00:00 18.7 4 Sur 17 Sudeste 0 1006.9 0.6 88
2019-06-13 00:00:00 19 8 Este 15 Este 0 1007.3 1.6 89
2019-06-12 23:00:00 18.8 9 Sudeste 15 Sudeste 0 1007.1 1.7 89
2019-06-12 22:00:00 19 9 Sudeste 17 Este 0 1006.3 0.6 86
2019-06-12 21:00:00 20.1 10 Sudeste 19 Sudeste 0 1005.7 -0.5 79
2019-06-12 20:00:00 21.5 14 Sudeste 19 Sudeste 0 1005.4 -1.1 70
2019-06-12 19:00:00 22.3 12 Sudeste 25 Sudeste 0 1005.7 -1.2 65
2019-06-12 18:00:00 22.4 14 Sudeste 28 Sudeste 0 1006.2 -0.8 65
2019-06-12 17:00:00 23.1 16 Sudeste 30 Sudeste 0 1006.5 -1 58
2019-06-12 16:00:00 23.3 19 Sudeste 29 Sudeste 0 1006.9 -0.9 53
2019-06-12 15:00:00 23.7 17 Sudeste 29 Sudeste 0 1007 -1.2 52
2019-06-12 14:00:00 23.6 20 Sudeste 31 Sudeste 0 1007.5 -0.6 50
2019-06-12 13:00:00 23.6 17 Sudeste 30 Sudeste 0 1007.8 -0.4 50
2019-06-12 12:00:00 22.7 13 Sudeste 27 Sudeste 0 1008.2 0.3 56
2019-06-12 11:00:00 21.4 16 Sudeste 33 Sudeste 0 1008.1 0.7 62
2019-06-12 10:00:00 19.5 14 Sudeste 26 Sudeste 0 1008.2 1.2 77
2019-06-12 09:00:00 19.7 12 Sudeste 26 Este 0 1007.9 1.3 79
2019-06-12 08:00:00 18.4 11 Sudeste 24 Sudeste 0 1007.4 0.9 86
2019-06-12 07:00:00 18.4 13 Sudeste 25 Sudeste 0 1007 1 86
2019-06-12 06:00:00 18.4 15 Este 30 Sudeste 0 1006.6 0.7 89
2019-06-12 05:00:00 18.8 18 Sudeste 35 Este 0 1006.5 1.9 89
2019-06-12 04:00:00 19.3 20 Sudeste 43 Sudeste 0 1006 2.3 89
2019-06-12 03:00:00 20 26 Este 51 Sudeste 0 1005.9 2.2 83
2019-06-12 02:00:00 23 0 Calma 40 Sudeste 0 1004.6 1.5 47
2019-06-12 01:00:00 23.8 5 Noroeste 18 Noroeste 0 1003.7 1.7 43
2019-06-12 00:00:00 25 10 Oeste 24 Noroeste 0 1003.7 1.9 41
2019-06-11 23:00:00 26.3 12 Noroeste 27 Noroeste 0 1003.1 1.5 37
2019-06-11 22:00:00 27.8 7 Noroeste 29 Noroeste 0 1002 0.6 30
2019-06-11 21:00:00 29.3 9 Noroeste 28 Noroeste 0 1001.8 0.2 29
2019-06-11 20:00:00 30.2 11 Noroeste 30 Norte 0 1001.6 -0.2 29
2019-06-11 19:00:00 30.4 12 Noroeste 32 Oeste 0 1001.4 -0.8 29
2019-06-11 18:00:00 30.7 14 Norte 37 Norte 0 1001.6 -0.8 29
2019-06-11 17:00:00 30.5 13 Norte 30 Noroeste 0 1001.8 -0.7 29
2019-06-11 16:00:00 30.4 14 Noroeste 33 Noroeste 0 1002.2 -0.8 29
2019-06-11 15:00:00 30 14 Norte 36 Nordeste 0 1002.4 -1.2 29
2019-06-11 14:00:00 29.9 12 Norte 37 Nordeste 0 1002.5 -1.4 30
2019-06-11 13:00:00 29.6 11 Noroeste 29 Noroeste 0 1003 -1.2 29
2019-06-11 12:00:00 28.6 5 Noroeste 26 Noroeste 0 1003.6 -0.8 29
2019-06-11 11:00:00 27.2 10 Noroeste 24 Noroeste 0 1003.9 -1.1 30
2019-06-11 10:00:00 26.1 6 Noroeste 17 Oeste 0 1004.2 -0.7 35
2019-06-11 09:00:00 23.1 2 Noroeste 22 Sudoeste 0 1004.4 -0.3 43
2019-06-11 08:00:00 20.4 15 Sudoeste 23 Sudoeste 0 1005 0 46
2019-06-11 07:00:00 20.5 11 Oeste 24 Noroeste 0 1004.9 -0.5 44
2019-06-11 06:00:00 21.1 13 Oeste 22 Oeste 0 1004.7 -1.4 42
2019-06-11 05:00:00 21.4 13 Oeste 23 Oeste 0 1005 -1.7 41
2019-06-11 04:00:00 21.7 13 Oeste 21 Oeste 0 1005.4 -1.6 41
2019-06-11 03:00:00 21.5 11 Oeste 16 Sudoeste 0 1006.1 -1.1 41
2019-06-11 02:00:00 22.3 9 Oeste 17 Oeste 0 1006.7 -0.3 38
2019-06-11 01:00:00 22.8 9 Oeste 13 Oeste 0 1007 0.9 38
2019-06-11 00:00:00 23.9 4 Noroeste 19 Norte 0 1007.2 1.4 37
2019-06-10 23:00:00 25.2 8 Norte 21 Noroeste 0 1007 1.2 35
2019-06-10 22:00:00 27.1 9 Noroeste 22 Norte 0 1006.1 0.1 28
2019-06-10 21:00:00 29.1 8 Noroeste 29 Noroeste 0 1005.8 -0.5 25
2019-06-10 20:00:00 30.4 10 Noroeste 27 Norte 0 1005.8 -1.1 24
2019-06-10 19:00:00 31 8 Noroeste 26 Norte 0 1006 -1.4 23
2019-06-10 18:00:00 31.1 9 Norte 28 Norte 0 1006.3 -1.8 24
2019-06-10 17:00:00 30.8 13 Noroeste 28 Norte 0 1006.9 -1.7 24
2019-06-10 16:00:00 30.3 12 Noroeste 36 Noroeste 0 1007.4 -1.9 26
2019-06-10 15:00:00 29.6 14 Noroeste 29 Noroeste 0 1008.1 -1.2 28
2019-06-10 14:00:00 28.8 14 Oeste 37 Oeste 0 1008.6 -1 31
2019-06-10 13:00:00 27.7 15 Noroeste 35 Oeste 0 1009.3 -0.8 34
2019-06-10 12:00:00 26.9 17 Oeste 28 Noroeste 0 1009.3 -0.9 33
2019-06-10 11:00:00 26 10 Norte 29 Noroeste 0 1009.6 -0.5 36
2019-06-10 10:00:00 24.3 13 Oeste 26 Oeste 0 1010.1 0 43
2019-06-10 09:00:00 21.5 14 Oeste 27 Oeste 0 1010.2 0.3 47
2019-06-10 08:00:00 20.3 12 Oeste 25 Oeste 0 1010.1 0.3 49
2019-06-10 07:00:00 20.1 14 Oeste 24 Oeste 0 1010.1 0.2 49
2019-06-10 06:00:00 21.1 12 Oeste 27 Noroeste 0 1009.9 -0.1 45
2019-06-10 05:00:00 21.9 14 Oeste 23 Noroeste 0 1009.8 -0.3 43
2019-06-10 04:00:00 22.1 8 Oeste 20 Noroeste 0 1009.9 -0.5 41
2019-06-10 03:00:00 22.4 5 Noroeste 19 Noroeste 0 1010 -0.3 38
2019-06-10 02:00:00 23.9 13 Noroeste 33 Noroeste 0 1010.1 0 35
2019-06-10 01:00:00 24.2 9 Noroeste 24 Noroeste 0 1010.4 1.2 32
2019-06-10 00:00:00 24.3 6 Noroeste 20 Noroeste 0 1010.3 1.7 30
2019-06-09 23:00:00 25.5 9 Noroeste 26 Noroeste 0 1010.1 1.8 29
2019-06-09 22:00:00 26.9 13 Oeste 20 Oeste 0 1009.2 1.3 27
2019-06-09 21:00:00 28.9 8 Noroeste 26 Noroeste 0 1008.6 0.2 26
2019-06-09 20:00:00 30 13 Noroeste 30 Noroeste 0 1008.3 -0.4 30
2019-06-09 19:00:00 30.8 12 Sur 20 Sudeste 0 1007.9 -1.6 37
2019-06-09 18:00:00 29.6 9 Este 20 Nordeste 0 1008.4 -1.9 40
2019-06-09 17:00:00 28.4 11 Este 22 Este 0 1008.7 -2.3 44
2019-06-09 16:00:00 27.4 11 Este 24 Este 0 1009.5 -1.8 49
2019-06-09 15:00:00 27.9 13 Sudeste 27 Sudeste 0 1010.3 -1.3 49
2019-06-09 14:00:00 26.4 16 Sudeste 24 Sudeste 0 1011 -0.9 50
2019-06-09 13:00:00 26.5 15 Sur 23 Sudeste 0 1011.3 -1 55
2019-06-09 12:00:00 25.9 6 Sur 15 Sudoeste 0 1011.6 -1 53
2019-06-09 11:00:00 23.9 3 Noroeste 11 Oeste 0 1011.9 -0.6 67
2019-06-09 10:00:00 22 0 Calma 12 Sudoeste 0 1012.3 -0.1 76
2019-06-09 09:00:00 21.3 6 Sur 10 Sur 0 1012.6 0.2 86
2019-06-09 08:00:00 20.2 4 Sur 6 Sudoeste 0 1012.5 -0.2 89
2019-06-09 07:00:00 20.1 3 Sur 7 Sudeste 0 1012.4 -0.3 89
2019-06-09 06:00:00 20.1 5 Sudeste 12 Sudeste 0 1012.4 -0.8 89
2019-06-09 05:00:00 20.4 6 Sudeste 12 Sudeste 0 1012.7 -0.7 88
2019-06-09 04:00:00 20.6 10 Sudeste 15 Sudeste 0 1012.7 -1.1 86
2019-06-09 03:00:00 20.8 8 Sudeste 13 Sudeste 0 1013.2 -0.8 86
2019-06-09 02:00:00 20.9 4 Sudeste 12 Sudeste 0 1013.4 -0.2 86
2019-06-09 01:00:00 20.7 8 Sudeste 14 Sudeste 0 1013.8 0.9 86
2019-06-09 00:00:00 20.7 8 Sudeste 13 Sudeste 0 1014 1.5 85
2019-06-08 23:00:00 20.8 8 Sudeste 14 Sudeste 0 1013.6 1.3 85
2019-06-08 22:00:00 20.9 7 Sudeste 16 Sudeste 0 1012.9 0.5 82
2019-06-08 21:00:00 21.9 10 Sudeste 22 Sudeste 0 1012.5 0.3 76
2019-06-08 20:00:00 23 12 Sudeste 19 Sudeste 0 1012.3 -0.1 70
2019-06-08 19:00:00 22.6 11 Sudeste 25 Sudeste 0 1012.4 -0.4 70
2019-06-08 18:00:00 24 17 Sudeste 32 Sudeste 0 1012.2 -0.9 65
2019-06-08 17:00:00 24.3 15 Sudeste 28 Sudeste 0 1012.4 -0.8 67
2019-06-08 16:00:00 23.7 17 Este 28 Este 0 1012.8 -0.4 67
2019-06-08 15:00:00 23.9 19 Sudeste 29 Sudeste 0 1013.1 0.2 65
2019-06-08 14:00:00 23.5 17 Sudeste 31 Sudeste 0 1013.2 0.7 67
2019-06-08 13:00:00 24.1 15 Sudeste 31 Sudeste 0 1013.2 1.1 61
2019-06-08 12:00:00 24 17 Sudeste 30 Sudeste 0 1012.9 0.9 59
2019-06-08 11:00:00 23.8 15 Sudeste 23 Sudeste 0 1012.5 0.7 58
2019-06-08 10:00:00 22.7 6 Oeste 12 Oeste 0 1012.1 0.6 68
2019-06-08 09:00:00 20.4 6 Noroeste 12 Noroeste 0 1012 0.6 76
2019-06-08 08:00:00 18.9 2 Noroeste 10 Sudeste 0 1011.8 0.8 73
2019-06-08 07:00:00 18.6 6 Sudeste 24 Sudeste 0 1011.5 1 85
2019-06-08 06:00:00 18.9 14 Sudeste 28 Este 0 1011.4 1.4 85
2019-06-08 05:00:00 19.7 13 Este 22 Este 0 1011 1.1 71
2019-06-08 04:00:00 21 7 Sudeste 17 Sudeste 0 1010.5 0.5 37
2019-06-08 03:00:00 22 5 Noroeste 18 Oeste 0 1010 0.1 31
2019-06-08 02:00:00 22.6 11 Oeste 19 Oeste 0 1009.9 0.5 30
2019-06-08 01:00:00 22.7 11 Oeste 18 Oeste 0 1010 1.3 31
2019-06-08 00:00:00 24.1 9 Oeste 17 Oeste 0 1009.9 1.7 29
2019-06-07 23:00:00 25 6 Noroeste 16 Noroeste 0 1009.4 1.3 29
2019-06-07 22:00:00 26.5 6 Noroeste 16 Oeste 0 1008.7 0.9 29
2019-06-07 21:00:00 28.8 7 Noroeste 18 Noroeste 0 1008.2 0.4 29
2019-06-07 20:00:00 28.2 5 Este 18 Nordeste 0 1008.1 -0.2 42
2019-06-07 19:00:00 30.7 6 Noroeste 22 Noroeste 0 1007.8 -0.9 30
2019-06-07 18:00:00 30.4 11 Oeste 24 Oeste 0 1007.8 -1.5 32
2019-06-07 17:00:00 30 4 Oeste 21 Este 0 1008.3 -1.3 35
2019-06-07 16:00:00 29.1 6 Noroeste 26 Oeste 0 1008.7 -1.1 38
2019-06-07 15:00:00 27.2 15 Oeste 31 Noroeste 0 1009.3 -0.1 42
2019-06-07 14:00:00 26.1 14 Noroeste 36 Noroeste 0 1009.6 0.2 47
2019-06-07 13:00:00 24.9 17 Noroeste 35 Noroeste 0 1009.8 0.7 50
2019-06-07 12:00:00 24.5 17 Noroeste 33 Noroeste 0 1009.4 0.5 53
2019-06-07 11:00:00 23.2 16 Noroeste 36 Noroeste 0 1009.4 0.7 56
2019-06-07 10:00:00 21.8 18 Noroeste 34 Noroeste 0 1009.1 0.9 59
2019-06-07 09:00:00 21 10 Noroeste 26 Noroeste 0 1008.9 1.2 62
2019-06-07 08:00:00 19 10 Oeste 19 Noroeste 0 1008.7 1.5 62
2019-06-07 07:00:00 18.5 13 Noroeste 25 Noroeste 0 1008.2 1.2 61
2019-06-07 06:00:00 18.8 9 Oeste 16 Noroeste 0 1007.7 1 56
2019-06-07 05:00:00 19.2 7 Noroeste 19 Noroeste 0 1007.2 0.5 53
2019-06-07 04:00:00 19.9 13 Oeste 24 Oeste 0 1007 0.4 49
2019-06-07 03:00:00 20.2 11 Oeste 17 Oeste 0 1006.7 0.6 44
2019-06-07 02:00:00 19.7 8 Oeste 14 Oeste 0 1006.7 0.8 44
2019-06-07 01:00:00 19.9 5 Noroeste 10 Oeste 0 1006.6 1.5 52
2019-06-07 00:00:00 20.4 2 Oeste 7 Norte 0 1006.1 1.3 53
2019-06-06 23:00:00 20.9 3 Oeste 11 Nordeste 0 1005.9 1.3 52
2019-06-06 22:00:00 21.9 7 Este 18 Este 0 1005.1 0.5 47
2019-06-06 21:00:00 22.7 12 Este 20 Este 0 1004.8 -0.2 47
2019-06-06 20:00:00 23.5 13 Este 27 Sudeste 0 1004.6 -0.9 44
2019-06-06 19:00:00 25.9 19 Sudeste 29 Sudeste 0 1004.6 -1.6 35
2019-06-06 18:00:00 27 14 Sudeste 25 Sudeste 0 1005 -1.4 34
2019-06-06 17:00:00 26.2 13 Este 28 Sudeste 0 1005.5 -1.3 38
2019-06-06 16:00:00 26.2 17 Este 28 Este 0 1006.2 -0.7 35
2019-06-06 15:00:00 28 15 Sur 30 Sur 0 1006.4 -0.3 32
2019-06-06 14:00:00 27.3 18 Sur 28 Sudeste 0 1006.8 -0.3 34
2019-06-06 13:00:00 26.5 19 Sur 27 Sur 0 1006.9 -0.8 34
2019-06-06 12:00:00 26.8 4 Sudoeste 17 Oeste 0 1006.7 -1 35
2019-06-06 11:00:00 24.8 10 Oeste 24 Oeste 0 1007.1 -0.8 41
2019-06-06 10:00:00 22.6 13 Oeste 27 Oeste 0 1007.7 -0.1 46
2019-06-06 09:00:00 20.2 15 Oeste 28 Oeste 0 1007.7 0.2 49
2019-06-06 08:00:00 18.5 13 Oeste 21 Oeste 0 1007.9 0.3 50
2019-06-06 07:00:00 17.4 14 Oeste 22 Oeste 0 1007.8 0.1 52
2019-06-06 06:00:00 17.8 15 Oeste 20 Oeste 0 1007.5 -0.7 50
2019-06-06 05:00:00 18.6 9 Oeste 18 Oeste 0 1007.6 -1 49
2019-06-06 04:00:00 18.5 9 Oeste 14 Oeste 0 1007.7 -0.9 50
2019-06-06 03:00:00 19.3 5 Noroeste 12 Noroeste 0 1008.2 -0.3 49
2019-06-06 02:00:00 20.1 8 Oeste 15 Oeste 0 1008.6 0.9 47
2019-06-06 01:00:00 21.2 6 Noroeste 19 Noroeste 0 1008.6 1.6 45
2019-06-06 00:00:00 22.3 10 Noroeste 23 Noroeste 0 1008.5 2.1 42
2019-06-05 23:00:00 23.3 7 Noroeste 18 Noroeste 0 1007.7 1.5 31
2019-06-05 22:00:00 24.3 7 Noroeste 19 Noroeste 0 1007 0.8 30
2019-06-05 21:00:00 25.7 12 Noroeste 29 Noroeste 0 1006.4 -0.1 29
2019-06-05 20:00:00 26.3 9 Noroeste 30 Nordeste 0 1006.2 -0.6 29
2019-06-05 19:00:00 26.7 10 Noroeste 27 Noroeste 0 1006.2 -1 29
2019-06-05 18:00:00 26.7 11 Noroeste 35 Noroeste 0 1006.5 -1.2 30
2019-06-05 17:00:00 26.3 15 Noroeste 39 Oeste 0 1006.8 -1.2 32
2019-06-05 16:00:00 26.4 19 Oeste 38 Oeste 0 1007.2 -0.8 32
2019-06-05 15:00:00 24.9 18 Noroeste 40 Noroeste 0 1007.7 -0.8 33
2019-06-05 14:00:00 24.9 19 Noroeste 45 Oeste 0 1008 -0.7 35
2019-06-05 13:00:00 23.6 23 Oeste 47 Oeste 0 1008 -0.7 37
2019-06-05 12:00:00 22.1 18 Noroeste 43 Noroeste 0 1008.5 0.1 40
2019-06-05 11:00:00 21.1 22 Noroeste 46 Noroeste 0 1008.7 0.6 43
2019-06-05 10:00:00 20 21 Oeste 38 Noroeste 0 1008.7 1.9 46
2019-06-05 09:00:00 18.8 17 Noroeste 39 Oeste 0 1008.4 2.1 49
2019-06-05 08:00:00 18.9 12 Noroeste 32 Norte 0 1008.1 2.2 50
2019-06-05 07:00:00 20.1 10 Noroeste 29 Noroeste 0 1006.8 1.1 58
2019-06-05 06:00:00 20.7 10 Noroeste 27 Noroeste 0 1006.3 0.5 58
2019-06-05 05:00:00 21.4 12 Noroeste 31 Norte 0 1005.9 0.2 58
2019-06-05 04:00:00 22.3 9 Noroeste 22 Norte 0 1005.7 0.7 59
2019-06-05 03:00:00 22.9 9 Noroeste 27 Noroeste 0 1005.8 1.2 58
2019-06-05 02:00:00 23.5 11 Noroeste 24 Noroeste 0 1005.7 1.8 55
2019-06-05 01:00:00 24.5 9 Noroeste 23 Noroeste 0 1005 2 50
2019-06-05 00:00:00 24.3 8 Oeste 21 Noroeste 0 1004.6 2.1 50
2019-06-04 23:00:00 23.2 0 Calma 8 Sur 0 1003.9 1.8 64
2019-06-04 22:00:00 24.4 4 Sur 12 Este 0 1003 0.3 58
2019-06-04 21:00:00 25.6 9 Este 20 Sudeste 0 1002.5 -1 55
2019-06-04 20:00:00 25.9 15 Este 26 Este 0 1002.1 -2 55
2019-06-04 19:00:00 25.8 12 Este 24 Este 0 1002.7 -2.3 56
2019-06-04 18:00:00 25.6 17 Este 29 Este 0 1003.5 -2.4 58
2019-06-04 17:00:00 26.1 14 Este 26 Sudeste 0 1004.1 -2.9 55
2019-06-04 16:00:00 26.1 13 Este 25 Sudeste 0 1005 -2.1 53
2019-06-04 15:00:00 24.9 14 Sudeste 28 Este 0 1005.9 -0.9 53
2019-06-04 14:00:00 24.3 17 Sudeste 28 Sudeste 0 1007 -0.5 56
2019-06-04 13:00:00 26.3 12 Sudeste 23 Sur 0 1007.1 -0.7 47
2019-06-04 12:00:00 27.7 4 Sur 12 Sudeste 0 1006.8 -1.2 41
2019-06-04 11:00:00 25.3 5 Sur 12 Sur 0 1007.5 -0.5 44
2019-06-04 10:00:00 23.1 4 Sudeste 9 Sudeste 0 1007.8 -0.1 44
2019-06-04 09:00:00 18.8 2 Oeste 8 Oeste 0 1008 0.8 55
2019-06-04 08:00:00 16.4 2 Norte 8 Noroeste 0 1008 0 59
2019-06-04 07:00:00 14.5 4 Oeste 12 Noroeste 0 1007.9 -0.7 61
2019-06-04 06:00:00 17.7 5 Noroeste 10 Noroeste 0 1007.2 -1.9 53
2019-06-04 05:00:00 17.6 6 Noroeste 10 Noroeste 0 1008 -1.9 56
2019-06-04 04:00:00 17.3 5 Oeste 9 Oeste 0 1008.6 -1.7 56
2019-06-04 03:00:00 17.7 5 Oeste 10 Noroeste 0 1009.1 -1.5 55
2019-06-04 02:00:00 17.4 5 Oeste 7 Oeste 0 1009.9 -0.4 59
2019-06-04 01:00:00 18.1 2 Noroeste 5 Noroeste 0 1010.3 0.3 58
2019-06-04 00:00:00 19.4 3 Oeste 5 Oeste 0 1010.6 0.6 64
2019-06-03 23:00:00 20 4 Sudeste 9 Este 0 1010.3 0.4 62
2019-06-03 22:00:00 20.8 6 Sudeste 13 Sudeste 0 1010 -0.1 58
2019-06-03 21:00:00 22 10 Sudeste 15 Sudeste 0 1010 -0.4 50
2019-06-03 20:00:00 23.3 12 Sudeste 19 Sudeste 0 1009.9 -0.8 50
2019-06-03 19:00:00 24.1 12 Sudeste 21 Sudeste 0 1010.1 -0.9 50
2019-06-03 18:00:00 24.4 15 Sudeste 23 Sudeste 0 1010.4 -1.5 52
2019-06-03 17:00:00 24.6 14 Sudeste 24 Este 0 1010.7 -1.4 50
2019-06-03 16:00:00 25.5 12 Sudeste 23 Sudeste 0 1011 -1.5 43
2019-06-03 15:00:00 24.6 13 Sudeste 23 Sudeste 0 1011.9 -0.6 45
2019-06-03 14:00:00 25.8 14 Sudeste 21 Sudeste 0 1012.1 -0.3 46
2019-06-03 13:00:00 24.7 11 Sudeste 19 Sudeste 0 1012.5 0.1 48
2019-06-03 12:00:00 25 11 Sudeste 17 Sudeste 0 1012.5 0.3 41
2019-06-03 11:00:00 24.8 10 Sudeste 16 Sudeste 0 1012.4 0.1 37
2019-06-03 10:00:00 23.4 4 Sudeste 9 Sur 0 1012.4 0.2 43
2019-06-03 09:00:00 19.9 4 Oeste 9 Oeste 0 1012.2 0.2 52
2019-06-03 08:00:00 17.4 4 Noroeste 11 Oeste 0 1012.3 -0.1 55
2019-06-03 07:00:00 17.2 8 Noroeste 12 Noroeste 0 1012.2 -0.5 55
2019-06-03 06:00:00 16.4 5 Oeste 9 Noroeste 0 1012 -1.3 58
2019-06-03 05:00:00 16.4 8 Oeste 12 Oeste 0 1012.4 -1.2 58
2019-06-03 04:00:00 17 6 Oeste 10 Oeste 0 1012.7 -1.1 55
2019-06-03 03:00:00 17.7 2 Noroeste 6 Oeste 0 1013.3 -0.5 55
2019-06-03 02:00:00 18.7 3 Noroeste 5 Norte 0 1013.6 0.2 52
2019-06-03 01:00:00 19.4 0 Calma 4 Norte 0 1013.8 1.1 52
2019-06-03 00:00:00 20 3 Noroeste 6 Noroeste 0 1013.8 1.5 56
2019-06-02 23:00:00 20.5 2 Oeste 6 Sudeste 0 1013.4 1.5 59
2019-06-02 22:00:00 21.1 3 Sur 10 Sudeste 0 1012.7 0.7 55
2019-06-02 21:00:00 22.2 7 Este 14 Sudeste 0 1012.3 0 50
2019-06-02 20:00:00 23.2 11 Sudeste 18 Sur 0 1011.9 -0.7 47
2019-06-02 19:00:00 24.2 12 Sudeste 21 Sudeste 0 1012 -0.7 46
2019-06-02 18:00:00 24.8 13 Sudeste 23 Sudeste 0 1012.3 -0.8 42
2019-06-02 17:00:00 25.3 16 Sudeste 26 Sudeste 0 1012.6 -0.9 35
2019-06-02 16:00:00 25.9 13 Sudeste 27 Sudeste 0 1012.7 -1.2 35
2019-06-02 15:00:00 26.5 15 Sudeste 25 Sudeste 0 1013.1 -0.7 33
2019-06-02 14:00:00 26.7 15 Sudeste 26 Sudeste 0 1013.5 -0.2 32
2019-06-02 13:00:00 27.5 15 Sur 25 Sur 0 1013.9 -0.1 32
2019-06-02 12:00:00 26.9 12 Sur 19 Sudoeste 0 1013.8 -0.3 33
2019-06-02 11:00:00 25.6 7 Sudeste 14 Sur 0 1013.7 -0.6 38
2019-06-02 10:00:00 23.2 6 Sudoeste 12 Oeste 0 1014 -0.2 49
2019-06-02 09:00:00 19.6 9 Oeste 13 Oeste 0 1014.1 0.1 58
2019-06-02 08:00:00 16.5 5 Oeste 13 Oeste 0 1014.3 0.2 65
2019-06-02 07:00:00 15.5 9 Oeste 13 Oeste 0 1014.2 -0.3 65
2019-06-02 06:00:00 16 5 Noroeste 7 Oeste 0 1014 -0.9 64
2019-06-02 05:00:00 17.4 3 Oeste 8 Norte 0 1014.1 -1.1 61
2019-06-02 04:00:00 18.4 5 Norte 8 Norte 0 1014.5 -0.8 62
2019-06-02 03:00:00 18.8 3 Noroeste 5 Noroeste 0 1014.9 -0.3 61
2019-06-02 02:00:00 19.2 0 Calma 4 Norte 0 1015.2 0.4 61
2019-06-02 01:00:00 19.5 2 Noroeste 7 Sur 0 1015.3 1.1 59
2019-06-02 00:00:00 20.1 4 Sudeste 15 Este 0 1015.2 1.6 55
2019-06-01 23:00:00 20.6 6 Este 16 Este 0 1014.8 1.6 52
2019-06-01 22:00:00 21 8 Sudeste 18 Sudeste 0 1014.2 0.6 50
2019-06-01 21:00:00 22.4 11 Sudeste 18 Sudeste 0 1013.6 -0.3 46
2019-06-01 20:00:00 23.5 10 Sudeste 20 Sudeste 0 1013.2 -1.1 44
2019-06-01 19:00:00 23.9 9 Sudeste 21 Sudeste 0 1013.6 -1.2 46
2019-06-01 18:00:00 24.1 12 Sudeste 23 Sudeste 0 1013.9 -1.2 46
2019-06-01 17:00:00 24.1 14 Sudeste 26 Sur 0 1014.3 -0.9 45
2019-06-01 16:00:00 24.8 14 Sudeste 26 Sudeste 0 1014.8 -0.7 41
2019-06-01 15:00:00 25.1 14 Sudeste 25 Sudeste 0 1015.1 -0.5 40
2019-06-01 14:00:00 25 14 Sudeste 27 Sudeste 0 1015.2 0 38
2019-06-01 13:00:00 25.4 13 Sudeste 31 Sudeste 0 1015.5 0.2 37
2019-06-01 12:00:00 24.7 19 Sudeste 30 Sudeste 0 1015.6 0.2 38
2019-06-01 11:00:00 24.7 11 Sudeste 22 Sudeste 0 1015.2 -0.2 41
2019-06-01 10:00:00 22.4 7 Sudoeste 14 Sudoeste 0 1015.3 0 55
2019-06-01 09:00:00 19.7 5 Noroeste 12 Noroeste 0 1015.4 0.2 74
2019-06-01 08:00:00 17.3 7 Noroeste 13 Noroeste 0 1015.4 -0.1 82
2019-06-01 07:00:00 16.4 4 Noroeste 9 Noroeste 0 1015.3 -0.2 85
2019-06-01 06:00:00 16 4 Noroeste 6 Noroeste 0 1015.2 -0.6 83
2019-06-01 05:00:00 16.2 0 Calma 5 Sudoeste 0 1015.5 -0.7 80
2019-06-01 04:00:00 17.1 2 Oeste 4 Oeste 0 1015.5 -0.9 77
2019-06-01 03:00:00 18.5 2 Norte 4 Noroeste 0 1015.8 -0.5 74
2019-06-01 02:00:00 18.7 0 Calma 3 Noroeste 0 1016.2 0.5 73
2019-06-01 01:00:00 19.2 0 Calma 12 Sudeste 0 1016.4 1.3 73
2019-06-01 00:00:00 19.6 5 Sudeste 10 Sudeste 0 1016.3 1.6 68
2019-05-31 23:00:00 19.9 6 Sudeste 12 Sudeste 0 1015.7 1.1 65
2019-05-31 22:00:00 20.4 6 Sudeste 15 Sur 0 1015.1 0.3 61
2019-05-31 21:00:00 21.4 10 Sudeste 21 Sudeste 0 1014.7 -0.6 55
2019-05-31 20:00:00 22.3 13 Sudeste 21 Sur 0 1014.6 -1 52
2019-05-31 19:00:00 23.4 11 Sudeste 24 Sudeste 0 1014.8 -1.1 50
2019-05-31 18:00:00 23.3 13 Sudeste 28 Sur 0 1015.3 -0.9 50
2019-05-31 17:00:00 23.5 17 Sudeste 36 Sudeste 0 1015.6 -1 50
2019-05-31 16:00:00 23.8 19 Sudeste 31 Sudeste 0 1015.9 -0.7 52
2019-05-31 15:00:00 24.2 14 Sudeste 27 Sudeste 0 1016.2 -0.6 49
2019-05-31 14:00:00 24 15 Sur 31 Sudeste 0 1016.6 -0.3 47
2019-05-31 13:00:00 24.2 12 Sudeste 29 Sudeste 0 1016.6 -0.1 47
2019-05-31 12:00:00 23.3 14 Sudeste 24 Sudeste 0 1016.8 0.1 49
2019-05-31 11:00:00 22.6 12 Sudeste 21 Este 0 1016.9 0.1 53
2019-05-31 10:00:00 21.8 8 Sudeste 20 Este 0 1016.7 0.1 59
2019-05-31 09:00:00 19 5 Noroeste 10 Noroeste 0 1016.7 0.1 74
2019-05-31 08:00:00 15.8 3 Noroeste 11 Oeste 0 1016.8 0.1 85
2019-05-31 07:00:00 14.6 4 Oeste 7 Sudoeste 0 1016.6 -0.2 85
2019-05-31 06:00:00 14.8 0 Calma 8 Oeste 0 1016.6 -0.6 82
2019-05-31 05:00:00 15.8 0 Calma 8 Oeste 0 1016.7 -1 79
2019-05-31 04:00:00 17.1 0 Calma 7 Norte 0 1016.8 -1.4 76
2019-05-31 03:00:00 17.5 3 Norte 5 Noroeste 0 1017.2 -1.3 76
2019-05-31 02:00:00 17.9 2 Norte 7 Norte 0 1017.7 -0.6 75
2019-05-31 01:00:00 18.2 3 Noroeste 6 Noroeste 0 1018.2 0.5 76
2019-05-31 00:00:00 18.6 4 Sur 18 Sudeste 0 1018.5 1.4 71
2019-05-30 23:00:00 19.2 10 Sudeste 19 Este 0 1018.3 1.5 68
2019-05-30 22:00:00 19.4 9 Sudeste 22 Este 0 1017.7 0.6 67
2019-05-30 21:00:00 20.1 13 Sudeste 26 Sudeste 0 1017.1 -0.2 64
2019-05-30 20:00:00 21.3 14 Sudeste 27 Sudeste 0 1016.8 -0.9 62
2019-05-30 19:00:00 21.4 17 Sudeste 30 Sudeste 0 1017.1 -0.7 62
2019-05-30 18:00:00 22.6 15 Sudeste 28 Sudeste 0 1017.3 -0.5 56
2019-05-30 17:00:00 22.5 16 Sudeste 32 Sudeste 0 1017.7 -0.4 56
2019-05-30 16:00:00 22.7 19 Sudeste 35 Este 0 1017.8 -0.8 55
2019-05-30 15:00:00 23.4 17 Sudeste 31 Sudeste 0 1017.8 -0.7 55
2019-05-30 14:00:00 22.8 20 Sudeste 32 Sudeste 0 1018.1 -0.3 58
2019-05-30 13:00:00 22.2 21 Sudeste 31 Sudeste 0 1018.6 0.5 61
2019-05-30 12:00:00 22.6 15 Sudeste 28 Sudeste 0 1018.5 0.7 63
2019-05-30 11:00:00 21.8 15 Sudeste 26 Sudeste 0 1018.4 0.8 68
2019-05-30 10:00:00 21.4 11 Sudeste 18 Sur 0 1018.1 0.8 70
2019-05-30 09:00:00 19.8 5 Sudoeste 8 Sudoeste 0 1017.8 0.7 77
2019-05-30 08:00:00 18.3 3 Oeste 17 Sudeste 0 1017.6 0.7 84
2019-05-30 07:00:00 18.2 10 Sudeste 21 Sudeste 0 1017.3 0.4 83
2019-05-30 06:00:00 17.6 5 Sudeste 12 Sudeste 0 1017.1 0.2 82
2019-05-30 05:00:00 17.5 0 Calma 4 Norte 0 1016.9 -0.3 86
2019-05-30 04:00:00 18 0 Calma 5 Nordeste 0 1016.9 -0.2 86
2019-05-30 03:00:00 18.3 3 Este 12 Este 0 1016.9 0 86
2019-05-30 02:00:00 18.9 5 Sudeste 15 Este 0 1017.2 1 85
2019-05-30 01:00:00 19.1 10 Sudeste 21 Sudeste 0 1017.1 1.9 85
2019-05-30 00:00:00 19.3 14 Sudeste 27 Sudeste 0 1016.9 2.7 80
2019-05-29 23:00:00 19.4 13 Sudeste 26 Sudeste 0 1016.2 2.7 80
2019-05-29 22:00:00 19.9 14 Sudeste 27 Sudeste 0 1015.2 1.7 71
2019-05-29 21:00:00 20.6 17 Sudeste 29 Sudeste 0 1014.2 0.8 67
2019-05-29 20:00:00 21.5 17 Este 26 Este 0 1013.5 0 64
2019-05-29 19:00:00 21.8 19 Sudeste 27 Este 0 1013.5 -0.2 68
2019-05-29 18:00:00 22.6 17 Sudeste 26 Sudeste 0 1013.4 -0.4 64
2019-05-29 17:00:00 24.4 14 Sudeste 26 Sur 0 1013.5 -0.7 56
2019-05-29 16:00:00 25.1 12 Sudeste 23 Este 0 1013.7 -0.5 50
2019-05-29 15:00:00 24.9 13 Sudeste 26 Sudeste 0 1013.8 -0.2 47
2019-05-29 14:00:00 25.1 14 Sudeste 26 Sudeste 0 1014.2 0.6 46
2019-05-29 13:00:00 24.9 15 Sudeste 28 Este 0 1014.2 0.8 45
2019-05-29 12:00:00 25.2 16 Sudeste 29 Sur 0 1014 0.8 47
2019-05-29 11:00:00 24.6 11 Sudeste 19 Sur 0 1013.6 1.1 53
2019-05-29 10:00:00 23.4 3 Sudeste 11 Sur 0 1013.4 1.4 65
2019-05-29 09:00:00 21 4 Noroeste 9 Norte 0 1013.2 1.7 79
2019-05-29 08:00:00 19.7 3 Noroeste 9 Noroeste 0 1012.5 1.5 83
2019-05-29 07:00:00 19.1 5 Noroeste 9 Norte 0 1012 1.4 82
2019-05-29 06:00:00 19.6 3 Sudeste 15 Sudeste 0 1011.5 1.4 83
2019-05-29 05:00:00 20.2 8 Este 20 Sudeste 0 1011 1.5 77
2019-05-29 04:00:00 20.3 9 Este 20 Sudeste 0 1010.6 1.6 70
2019-05-29 03:00:00 20 6 Sudeste 12 Sudeste 0 1010.1 1.4 76
2019-05-29 02:00:00 20.2 6 Sudeste 14 Este 0 1009.5 1.5 83
2019-05-29 01:00:00 20.3 7 Sudeste 14 Sudeste 0 1009 1.6 86
2019-05-29 00:00:00 20.7 8 Sudeste 12 Sudeste 0 1008.7 1.7 80
2019-05-28 23:00:00 20.8 5 Este 10 Este 0 1008 1.5 74
2019-05-28 22:00:00 21.2 8 Sudeste 15 Este 0 1007.4 1 71
2019-05-28 21:00:00 21.7 10 Sudeste 17 Sudeste 0 1007 0.7 74
2019-05-28 20:00:00 22.7 12 Sudeste 20 Sudeste 0 1006.5 0.2 73
2019-05-28 19:00:00 23.7 13 Sudeste 23 Sudeste 0 1006.4 0 65
2019-05-28 18:00:00 24.2 16 Sudeste 23 Este 0 1006.3 -0.2 58
2019-05-28 17:00:00 24.7 18 Sudeste 26 Sudeste 0 1006.3 0 53
2019-05-28 16:00:00 25.1 18 Sudeste 28 Sudeste 0 1006.4 0 52
2019-05-28 15:00:00 24.8 18 Este 30 Este 0 1006.5 0.6 55
2019-05-28 14:00:00 25 17 Sudeste 29 Sudeste 0 1006.3 1 61
2019-05-28 13:00:00 24.1 17 Sudeste 25 Sudeste 0 1006.4 1.1 68
2019-05-28 12:00:00 24.8 15 Sudeste 20 Sudeste 0 1005.9 0.5 62
2019-05-28 11:00:00 26.3 7 Sudeste 12 Este 0 1005.3 -0.1 56
2019-05-28 10:00:00 23.5 2 Sur 7 Nordeste 0 1005.3 0.4 67
2019-05-28 09:00:00 21.3 3 Nordeste 10 Este 0 1005.4 0.7 79
2019-05-28 08:00:00 19 4 Este 9 Este 0 1005.4 1.1 89
2019-05-28 07:00:00 18.3 6 Este 10 Este 0 1004.9 0.2 88
2019-05-28 06:00:00 18.1 4 Sudeste 8 Sudeste 0 1004.7 -0.4 77
2019-05-28 05:00:00 18 3 Noroeste 6 Noroeste 0 1004.3 -1 79
2019-05-28 04:00:00 18.6 0 Calma 3 Nordeste 0 1004.7 -1.2 80
2019-05-28 03:00:00 18.5 2 Sudoeste 6 Oeste 0 1005.1 -1 80
2019-05-28 02:00:00 19 3 Oeste 5 Oeste 0 1005.3 -0.7 79
2019-05-28 01:00:00 19.5 2 Norte 8 Norte 0 1005.9 0.4 79
2019-05-28 00:00:00 19.9 3 Oeste 6 Sur 0 1006.1 0.8 77